IBE09BR LEMD-GCXO
Flight info
| Callsign | IBE09BR |
|---|---|
| Flight time | 2h 30m |
| Altitude | 31000 |
| Route | CCS DCT ELVAR/N0470F370 DCT BAROK UN873 SAMAR |
| Aircraft | A346/H-SDE2E3FGHIJ3J4J5M1RWXYZ/L |
Departure
| Time | 2026-05-06 19:57 |
|---|---|
| Airport | Adolfo Suárez Madrid–Barajas Airport (LEMD) |
Arrival
| Time | 2026-05-06 22:28 |
|---|---|
| Airport | Tenerife Norte-Ciudad de La Laguna Airport (GCXO) |
| Time | Latitude | Longitude | Altitude | Speed | Heading |
|---|---|---|---|---|---|
| 2026-05-06 19:15 | 40.49539 | -3.56881 | 1980 ft | 0 kts | 87° |
| 2026-05-06 19:44 | 40.49538 | -3.56884 | 1980 ft | 3 kts | 87° |
| 2026-05-06 19:44 | 40.49538 | -3.56903 | 1980 ft | 3 kts | 89° |
| 2026-05-06 19:45 | 40.49538 | -3.56914 | 1980 ft | 3 kts | 90° |
| 2026-05-06 19:45 | 40.49538 | -3.56929 | 1980 ft | 3 kts | 90° |
| 2026-05-06 19:45 | 40.49538 | -3.56942 | 1981 ft | 1 kts | 89° |
| 2026-05-06 19:45 | 40.49538 | -3.56950 | 1981 ft | 2 kts | 91° |
| 2026-05-06 19:46 | 40.49539 | -3.56963 | 1981 ft | 1 kts | 100° |
| 2026-05-06 19:46 | 40.49540 | -3.56972 | 1982 ft | 3 kts | 108° |
| 2026-05-06 19:46 | 40.49542 | -3.56978 | 1982 ft | 2 kts | 115° |
| 2026-05-06 19:46 | 40.49544 | -3.56985 | 1985 ft | 3 kts | 124° |
| 2026-05-06 19:47 | 40.49550 | -3.56994 | 1985 ft | 3 kts | 143° |
| 2026-05-06 19:47 | 40.49558 | -3.57001 | 1986 ft | 3 kts | 164° |
| 2026-05-06 19:47 | 40.49567 | -3.57003 | 1986 ft | 3 kts | 177° |
| 2026-05-06 19:47 | 40.49579 | -3.57003 | 1986 ft | 2 kts | 179° |
| 2026-05-06 19:48 | 40.49587 | -3.57004 | 1986 ft | 3 kts | 179° |
| 2026-05-06 19:48 | 40.49596 | -3.57004 | 1986 ft | 3 kts | 179° |
| 2026-05-06 19:48 | 40.49607 | -3.57004 | 1987 ft | 0 kts | 179° |
| 2026-05-06 19:50 | 40.49608 | -3.57004 | 1987 ft | 0 kts | 179° |
| 2026-05-06 19:51 | 40.49607 | -3.57004 | 1987 ft | 0 kts | 179° |
| 2026-05-06 19:52 | 40.49584 | -3.57003 | 1986 ft | 10 kts | 179° |
| 2026-05-06 19:53 | 40.49492 | -3.57002 | 1987 ft | 11 kts | 179° |
| 2026-05-06 19:53 | 40.49401 | -3.57002 | 1984 ft | 14 kts | 180° |
| 2026-05-06 19:53 | 40.49310 | -3.57021 | 1987 ft | 12 kts | 227° |
| 2026-05-06 19:53 | 40.49294 | -3.57120 | 1988 ft | 12 kts | 267° |
| 2026-05-06 19:54 | 40.49266 | -3.57215 | 1991 ft | 11 kts | 217° |
| 2026-05-06 19:54 | 40.49213 | -3.57239 | 1994 ft | 8 kts | 219° |
| 2026-05-06 19:54 | 40.49185 | -3.57299 | 1995 ft | 9 kts | 257° |
| 2026-05-06 19:54 | 40.49183 | -3.57381 | 1992 ft | 10 kts | 274° |
| 2026-05-06 19:55 | 40.49203 | -3.57443 | 1994 ft | 2 kts | 322° |
| 2026-05-06 19:55 | 40.49220 | -3.57448 | 1995 ft | 5 kts | 353° |
| 2026-05-06 19:55 | 40.49242 | -3.57450 | 1994 ft | 0 kts | 358° |
| 2026-05-06 19:55 | 40.49250 | -3.57450 | 1993 ft | 0 kts | 358° |
| 2026-05-06 19:56 | 40.49255 | -3.57450 | 1993 ft | 0 kts | 358° |
| 2026-05-06 19:56 | 40.49256 | -3.57450 | 1993 ft | 0 kts | 358° |
| 2026-05-06 19:56 | 40.49325 | -3.57451 | 1991 ft | 36 kts | 0° |
| 2026-05-06 19:56 | 40.49723 | -3.57455 | 1994 ft | 91 kts | 359° |
| 2026-05-06 19:57 | 40.50378 | -3.57460 | 2000 ft | 134 kts | 0° |
| 2026-05-06 19:57 | 40.51262 | -3.57466 | 2007 ft | 169 kts | 0° |
| 2026-05-06 19:57 | 40.52338 | -3.57472 | 2425 ft | 169 kts | 0° |
| 2026-05-06 19:57 | 40.53317 | -3.57456 | 2977 ft | 162 kts | 2° |
| 2026-05-06 19:58 | 40.54309 | -3.57441 | 3458 ft | 163 kts | 358° |
| 2026-05-06 19:58 | 40.55285 | -3.57649 | 3823 ft | 169 kts | 335° |
| 2026-05-06 19:58 | 40.56085 | -3.58560 | 4079 ft | 177 kts | 298° |
| 2026-05-06 19:58 | 40.56472 | -3.59940 | 4441 ft | 181 kts | 293° |
| 2026-05-06 19:59 | 40.57177 | -3.61159 | 4869 ft | 182 kts | 322° |
| 2026-05-06 19:59 | 40.58162 | -3.62041 | 5312 ft | 185 kts | 327° |
| 2026-05-06 19:59 | 40.59236 | -3.62967 | 5643 ft | 199 kts | 325° |
| 2026-05-06 19:59 | 40.60388 | -3.64053 | 5995 ft | 216 kts | 322° |
| 2026-05-06 20:00 | 40.61599 | -3.65284 | 6387 ft | 232 kts | 321° |
| 2026-05-06 20:00 | 40.62854 | -3.66615 | 6952 ft | 240 kts | 319° |
| 2026-05-06 20:00 | 40.63896 | -3.68377 | 7425 ft | 252 kts | 287° |
| 2026-05-06 20:00 | 40.64106 | -3.70611 | 7994 ft | 263 kts | 268° |
| 2026-05-06 20:01 | 40.64043 | -3.73105 | 8538 ft | 279 kts | 266° |
| 2026-05-06 20:01 | 40.63971 | -3.75682 | 9274 ft | 288 kts | 266° |
| 2026-05-06 20:01 | 40.63907 | -3.78310 | 10185 ft | 290 kts | 267° |
| 2026-05-06 20:01 | 40.63851 | -3.80981 | 10913 ft | 299 kts | 267° |
| 2026-05-06 20:02 | 40.63797 | -3.83796 | 11388 ft | 317 kts | 267° |
| 2026-05-06 20:02 | 40.63746 | -3.86619 | 11813 ft | 333 kts | 267° |
| 2026-05-06 20:02 | 40.63691 | -3.89704 | 12247 ft | 351 kts | 267° |
| 2026-05-06 20:02 | 40.63634 | -3.92967 | 12643 ft | 368 kts | 267° |
| 2026-05-06 20:03 | 40.63576 | -3.96258 | 13207 ft | 379 kts | 267° |
| 2026-05-06 20:03 | 40.63518 | -3.99696 | 14051 ft | 381 kts | 267° |
| 2026-05-06 20:03 | 40.63458 | -4.03133 | 14860 ft | 383 kts | 267° |
| 2026-05-06 20:03 | 40.63397 | -4.06607 | 15664 ft | 386 kts | 267° |
| 2026-05-06 20:04 | 40.63336 | -4.09983 | 16441 ft | 388 kts | 267° |
| 2026-05-06 20:04 | 40.63272 | -4.13533 | 17264 ft | 391 kts | 267° |
| 2026-05-06 20:04 | 40.63208 | -4.17006 | 18053 ft | 393 kts | 268° |
| 2026-05-06 20:04 | 40.63146 | -4.20585 | 18746 ft | 396 kts | 268° |
| 2026-05-06 20:05 | 40.63082 | -4.24226 | 19416 ft | 399 kts | 267° |
| 2026-05-06 20:05 | 40.63015 | -4.27821 | 20054 ft | 403 kts | 267° |
| 2026-05-06 20:05 | 40.62944 | -4.31532 | 20689 ft | 407 kts | 267° |
| 2026-05-06 20:05 | 40.62873 | -4.35085 | 21294 ft | 410 kts | 267° |
| 2026-05-06 20:06 | 40.62799 | -4.38791 | 21917 ft | 414 kts | 267° |
| 2026-05-06 20:06 | 40.62721 | -4.42520 | 22529 ft | 418 kts | 267° |
| 2026-05-06 20:06 | 40.62641 | -4.46309 | 23137 ft | 422 kts | 267° |
| 2026-05-06 20:06 | 40.62535 | -4.50038 | 23683 ft | 425 kts | 264° |
| 2026-05-06 20:07 | 40.61995 | -4.53795 | 24156 ft | 428 kts | 253° |
| 2026-05-06 20:07 | 40.60884 | -4.57410 | 24694 ft | 430 kts | 242° |
| 2026-05-06 20:07 | 40.59278 | -4.60699 | 25214 ft | 432 kts | 234° |
| 2026-05-06 20:07 | 40.57524 | -4.63801 | 25728 ft | 435 kts | 233° |
| 2026-05-06 20:08 | 40.55708 | -4.66951 | 26214 ft | 439 kts | 233° |
| 2026-05-06 20:08 | 40.53889 | -4.70107 | 26712 ft | 442 kts | 233° |
| 2026-05-06 20:08 | 40.52137 | -4.73159 | 27192 ft | 444 kts | 233° |
| 2026-05-06 20:08 | 40.50323 | -4.76330 | 27901 ft | 442 kts | 233° |
| 2026-05-06 20:09 | 40.48587 | -4.79371 | 28670 ft | 438 kts | 233° |
| 2026-05-06 20:09 | 40.46804 | -4.82495 | 29443 ft | 435 kts | 233° |
| 2026-05-06 20:09 | 40.45052 | -4.85561 | 30054 ft | 435 kts | 233° |
| 2026-05-06 20:09 | 40.43232 | -4.88744 | 30539 ft | 437 kts | 233° |
| 2026-05-06 20:10 | 40.41445 | -4.91861 | 30920 ft | 439 kts | 233° |
| 2026-05-06 20:10 | 40.39619 | -4.95043 | 31015 ft | 440 kts | 233° |
| 2026-05-06 20:10 | 40.35990 | -5.01366 | 31007 ft | 440 kts | 233° |
| 2026-05-06 20:11 | 40.32356 | -5.07679 | 31025 ft | 438 kts | 233° |
| 2026-05-06 20:11 | 40.28714 | -5.13997 | 31008 ft | 438 kts | 233° |
| 2026-05-06 20:12 | 40.25058 | -5.20325 | 30993 ft | 438 kts | 233° |
| 2026-05-06 20:12 | 40.21416 | -5.26617 | 31014 ft | 438 kts | 233° |
| 2026-05-06 20:13 | 40.17776 | -5.32892 | 31008 ft | 438 kts | 233° |
| 2026-05-06 20:13 | 40.14177 | -5.39088 | 30991 ft | 437 kts | 233° |
| 2026-05-06 20:14 | 40.10519 | -5.45366 | 30996 ft | 437 kts | 233° |
| 2026-05-06 20:14 | 40.06876 | -5.51608 | 30982 ft | 436 kts | 233° |
| 2026-05-06 20:15 | 40.03254 | -5.57802 | 30978 ft | 436 kts | 233° |
| 2026-05-06 20:15 | 39.99608 | -5.64026 | 30961 ft | 436 kts | 233° |
| 2026-05-06 20:16 | 39.95957 | -5.70246 | 30972 ft | 436 kts | 233° |
| 2026-05-06 20:16 | 39.92330 | -5.76417 | 30970 ft | 436 kts | 232° |
| 2026-05-06 20:17 | 39.89273 | -5.81603 | 30961 ft | 435 kts | 232° |
| 2026-05-06 20:17 | 39.85023 | -5.88798 | 30948 ft | 435 kts | 232° |
| 2026-05-06 20:18 | 39.81336 | -5.95031 | 30961 ft | 435 kts | 232° |
| 2026-05-06 20:18 | 39.78294 | -6.00164 | 30959 ft | 435 kts | 232° |
| 2026-05-06 20:19 | 39.74619 | -6.06354 | 30943 ft | 435 kts | 232° |
| 2026-05-06 20:19 | 39.70352 | -6.13529 | 30953 ft | 434 kts | 232° |
| 2026-05-06 20:20 | 39.66686 | -6.19676 | 30954 ft | 434 kts | 232° |
| 2026-05-06 20:20 | 39.63657 | -6.24745 | 30934 ft | 434 kts | 232° |
| 2026-05-06 20:21 | 39.59984 | -6.30882 | 30954 ft | 433 kts | 232° |
| 2026-05-06 20:21 | 39.56295 | -6.37038 | 30955 ft | 433 kts | 232° |
| 2026-05-06 20:22 | 39.52652 | -6.43101 | 30951 ft | 433 kts | 232° |
| 2026-05-06 20:22 | 39.49186 | -6.49438 | 30948 ft | 433 kts | 237° |
| 2026-05-06 20:23 | 39.46237 | -6.56136 | 30954 ft | 433 kts | 242° |
| 2026-05-06 20:23 | 39.43818 | -6.63158 | 30952 ft | 434 kts | 247° |
| 2026-05-06 20:24 | 39.41778 | -6.70447 | 30957 ft | 434 kts | 247° |
| 2026-05-06 20:24 | 39.39369 | -6.77466 | 30955 ft | 433 kts | 242° |
| 2026-05-06 20:25 | 39.36721 | -6.84348 | 30971 ft | 432 kts | 242° |
| 2026-05-06 20:25 | 39.34038 | -6.91284 | 30956 ft | 432 kts | 242° |
| 2026-05-06 20:26 | 39.31406 | -6.98064 | 30956 ft | 432 kts | 242° |
| 2026-05-06 20:26 | 39.28737 | -7.04924 | 30963 ft | 432 kts | 242° |
| 2026-05-06 20:27 | 39.26039 | -7.11822 | 30963 ft | 432 kts | 241° |
| 2026-05-06 20:27 | 39.22879 | -7.18285 | 30951 ft | 431 kts | 233° |
| 2026-05-06 20:28 | 39.18994 | -7.24071 | 30908 ft | 430 kts | 225° |
| 2026-05-06 20:28 | 39.14463 | -7.29049 | 30892 ft | 431 kts | 217° |
| 2026-05-06 20:29 | 39.09578 | -7.33500 | 30894 ft | 431 kts | 216° |
| 2026-05-06 20:29 | 39.04676 | -7.37931 | 30898 ft | 431 kts | 216° |
| 2026-05-06 20:30 | 38.97378 | -7.44516 | 30904 ft | 431 kts | 216° |
| 2026-05-06 20:31 | 38.92519 | -7.48892 | 30902 ft | 431 kts | 216° |
| 2026-05-06 20:31 | 38.87648 | -7.53272 | 30879 ft | 431 kts | 216° |
| 2026-05-06 20:32 | 38.82823 | -7.57602 | 30901 ft | 431 kts | 216° |
| 2026-05-06 20:32 | 38.77904 | -7.62011 | 31080 ft | 441 kts | 216° |
| 2026-05-06 20:32 | 38.75463 | -7.64196 | 31477 ft | 443 kts | 216° |
| 2026-05-06 20:33 | 38.72986 | -7.66410 | 32018 ft | 442 kts | 216° |
| 2026-05-06 20:33 | 38.70474 | -7.68653 | 32580 ft | 441 kts | 216° |
| 2026-05-06 20:33 | 38.68024 | -7.70838 | 33097 ft | 440 kts | 216° |
| 2026-05-06 20:33 | 38.65523 | -7.73068 | 33599 ft | 440 kts | 217° |
| 2026-05-06 20:34 | 38.63063 | -7.75260 | 34030 ft | 441 kts | 217° |
| 2026-05-06 20:34 | 38.60567 | -7.77482 | 34417 ft | 441 kts | 217° |
| 2026-05-06 20:34 | 38.58079 | -7.79697 | 34776 ft | 442 kts | 217° |
| 2026-05-06 20:34 | 38.55573 | -7.81926 | 35135 ft | 444 kts | 217° |
| 2026-05-06 20:35 | 38.53094 | -7.84129 | 35504 ft | 444 kts | 217° |
| 2026-05-06 20:35 | 38.50590 | -7.86352 | 35844 ft | 445 kts | 217° |
| 2026-05-06 20:35 | 38.48070 | -7.88587 | 36187 ft | 446 kts | 217° |
| 2026-05-06 20:35 | 38.45545 | -7.90824 | 36527 ft | 446 kts | 217° |
| 2026-05-06 20:36 | 38.43024 | -7.93056 | 36846 ft | 447 kts | 217° |
| 2026-05-06 20:36 | 38.37909 | -7.97577 | 36906 ft | 448 kts | 217° |
| 2026-05-06 20:37 | 38.32797 | -8.02087 | 36935 ft | 447 kts | 217° |
| 2026-05-06 20:37 | 38.27781 | -8.06505 | 36924 ft | 447 kts | 217° |
| 2026-05-06 20:38 | 38.23060 | -8.10656 | 36940 ft | 447 kts | 217° |
| 2026-05-06 20:38 | 38.18116 | -8.14997 | 36924 ft | 447 kts | 217° |
| 2026-05-06 20:39 | 38.13063 | -8.19425 | 36937 ft | 447 kts | 217° |
| 2026-05-06 20:39 | 38.08015 | -8.23842 | 36926 ft | 447 kts | 217° |
| 2026-05-06 20:40 | 38.03150 | -8.28091 | 36948 ft | 447 kts | 217° |
| 2026-05-06 20:40 | 37.98526 | -8.32123 | 36939 ft | 447 kts | 217° |
| 2026-05-06 20:41 | 37.93741 | -8.36287 | 36953 ft | 448 kts | 217° |
| 2026-05-06 20:41 | 37.88827 | -8.40558 | 36928 ft | 449 kts | 217° |
| 2026-05-06 20:42 | 37.84175 | -8.44595 | 36950 ft | 449 kts | 217° |
| 2026-05-06 20:42 | 37.79176 | -8.48927 | 36956 ft | 449 kts | 217° |
| 2026-05-06 20:43 | 37.74475 | -8.52994 | 36963 ft | 449 kts | 217° |
| 2026-05-06 20:43 | 37.69738 | -8.57085 | 36963 ft | 450 kts | 217° |
| 2026-05-06 20:44 | 37.64704 | -8.61426 | 36964 ft | 450 kts | 217° |
| 2026-05-06 20:44 | 37.59740 | -8.65698 | 36962 ft | 450 kts | 217° |
| 2026-05-06 20:45 | 37.54868 | -8.69885 | 36971 ft | 450 kts | 217° |
| 2026-05-06 20:45 | 37.50650 | -8.73504 | 36970 ft | 450 kts | 217° |
| 2026-05-06 20:46 | 37.45715 | -8.77733 | 36970 ft | 451 kts | 217° |
| 2026-05-06 20:46 | 37.40843 | -8.81902 | 36974 ft | 451 kts | 217° |
| 2026-05-06 20:47 | 37.35963 | -8.86070 | 36966 ft | 451 kts | 217° |
| 2026-05-06 20:47 | 37.31010 | -8.90293 | 36974 ft | 451 kts | 217° |
| 2026-05-06 20:48 | 37.26184 | -8.94402 | 36978 ft | 451 kts | 217° |
| 2026-05-06 20:48 | 37.21320 | -8.98537 | 36978 ft | 451 kts | 217° |
| 2026-05-06 20:49 | 37.16466 | -9.02656 | 36978 ft | 451 kts | 217° |
| 2026-05-06 20:49 | 37.11603 | -9.06776 | 36956 ft | 451 kts | 217° |
| 2026-05-06 20:50 | 37.06804 | -9.10833 | 36977 ft | 452 kts | 217° |
| 2026-05-06 20:50 | 37.02015 | -9.14878 | 36982 ft | 453 kts | 217° |
| 2026-05-06 20:51 | 36.97110 | -9.19017 | 36981 ft | 453 kts | 217° |
| 2026-05-06 20:51 | 36.92363 | -9.23015 | 36982 ft | 453 kts | 217° |
| 2026-05-06 20:52 | 36.87667 | -9.26963 | 36991 ft | 453 kts | 217° |
| 2026-05-06 20:52 | 36.82835 | -9.31019 | 36985 ft | 453 kts | 217° |
| 2026-05-06 20:53 | 36.78078 | -9.35006 | 36988 ft | 453 kts | 217° |
| 2026-05-06 20:53 | 36.73168 | -9.39116 | 36996 ft | 453 kts | 217° |
| 2026-05-06 20:54 | 36.68478 | -9.43035 | 36996 ft | 453 kts | 217° |
| 2026-05-06 20:54 | 36.63917 | -9.46841 | 36994 ft | 453 kts | 217° |
| 2026-05-06 20:55 | 36.59051 | -9.50892 | 36987 ft | 455 kts | 217° |
| 2026-05-06 20:55 | 36.54222 | -9.54910 | 37000 ft | 455 kts | 217° |
| 2026-05-06 20:56 | 36.49577 | -9.58770 | 37000 ft | 455 kts | 217° |
| 2026-05-06 20:56 | 36.44912 | -9.62639 | 37004 ft | 455 kts | 217° |
| 2026-05-06 20:57 | 36.40217 | -9.66527 | 37005 ft | 455 kts | 217° |
| 2026-05-06 20:57 | 36.35511 | -9.70419 | 37005 ft | 455 kts | 217° |
| 2026-05-06 20:58 | 36.31137 | -9.74029 | 36992 ft | 455 kts | 217° |
| 2026-05-06 20:58 | 36.26699 | -9.77690 | 37004 ft | 455 kts | 217° |
| 2026-05-06 20:59 | 36.22275 | -9.81334 | 37016 ft | 455 kts | 217° |
| 2026-05-06 20:59 | 36.17715 | -9.85083 | 37010 ft | 456 kts | 217° |
| 2026-05-06 21:00 | 36.12934 | -9.89011 | 37009 ft | 457 kts | 217° |
| 2026-05-06 21:00 | 36.08262 | -9.92844 | 37004 ft | 457 kts | 217° |
| 2026-05-06 21:01 | 36.03334 | -9.96880 | 37018 ft | 457 kts | 217° |
| 2026-05-06 21:01 | 35.98449 | -10.00874 | 37020 ft | 457 kts | 217° |
| 2026-05-06 21:02 | 35.93713 | -10.05077 | 37019 ft | 456 kts | 220° |
| 2026-05-06 21:02 | 35.88950 | -10.09506 | 37021 ft | 456 kts | 220° |
| 2026-05-06 21:03 | 35.84126 | -10.13983 | 37026 ft | 456 kts | 220° |
| 2026-05-06 21:03 | 35.79460 | -10.18308 | 37011 ft | 455 kts | 220° |
| 2026-05-06 21:04 | 35.74971 | -10.22460 | 37015 ft | 457 kts | 220° |
| 2026-05-06 21:04 | 35.70216 | -10.26856 | 37022 ft | 459 kts | 220° |
| 2026-05-06 21:05 | 35.65452 | -10.31253 | 37034 ft | 460 kts | 220° |
| 2026-05-06 21:05 | 35.60740 | -10.35595 | 37036 ft | 460 kts | 220° |
| 2026-05-06 21:06 | 35.56049 | -10.39911 | 37034 ft | 460 kts | 220° |
| 2026-05-06 21:06 | 35.51316 | -10.44259 | 37034 ft | 460 kts | 220° |
| 2026-05-06 21:07 | 35.46549 | -10.48631 | 37034 ft | 460 kts | 220° |
| 2026-05-06 21:07 | 35.42003 | -10.52794 | 37034 ft | 460 kts | 220° |
| 2026-05-06 21:08 | 35.37325 | -10.57073 | 37035 ft | 460 kts | 220° |
| 2026-05-06 21:08 | 35.32705 | -10.61289 | 37028 ft | 463 kts | 220° |
| 2026-05-06 21:09 | 35.28157 | -10.65438 | 37009 ft | 464 kts | 220° |
| 2026-05-06 21:09 | 35.23551 | -10.69632 | 37030 ft | 465 kts | 220° |
| 2026-05-06 21:10 | 35.18764 | -10.73985 | 37039 ft | 465 kts | 220° |
| 2026-05-06 21:10 | 35.14040 | -10.78275 | 37040 ft | 465 kts | 220° |
| 2026-05-06 21:11 | 35.09243 | -10.82623 | 37041 ft | 465 kts | 220° |
| 2026-05-06 21:11 | 35.04369 | -10.87035 | 37046 ft | 465 kts | 220° |
| 2026-05-06 21:12 | 34.99551 | -10.91389 | 37024 ft | 465 kts | 220° |
| 2026-05-06 21:12 | 34.94794 | -10.95680 | 37021 ft | 466 kts | 221° |
| 2026-05-06 21:13 | 34.90006 | -10.99994 | 37047 ft | 470 kts | 221° |
| 2026-05-06 21:13 | 34.85301 | -11.04228 | 37046 ft | 470 kts | 221° |
| 2026-05-06 21:14 | 34.80351 | -11.08677 | 37051 ft | 470 kts | 221° |
| 2026-05-06 21:14 | 34.75527 | -11.13004 | 37046 ft | 470 kts | 221° |
| 2026-05-06 21:15 | 34.70652 | -11.17372 | 37034 ft | 470 kts | 220° |
| 2026-05-06 21:15 | 34.65808 | -11.21704 | 37041 ft | 470 kts | 220° |
| 2026-05-06 21:16 | 34.61205 | -11.25818 | 37050 ft | 470 kts | 221° |
| 2026-05-06 21:16 | 34.56445 | -11.30092 | 37047 ft | 470 kts | 221° |
| 2026-05-06 21:17 | 34.51706 | -11.34339 | 37044 ft | 473 kts | 221° |
| 2026-05-06 21:17 | 34.46734 | -11.38793 | 37051 ft | 474 kts | 221° |
| 2026-05-06 21:18 | 34.42093 | -11.42949 | 37046 ft | 474 kts | 221° |
| 2026-05-06 21:18 | 34.37428 | -11.47114 | 37052 ft | 474 kts | 221° |
| 2026-05-06 21:19 | 34.32464 | -11.51539 | 37055 ft | 474 kts | 221° |
| 2026-05-06 21:19 | 34.27500 | -11.55957 | 37054 ft | 474 kts | 221° |
| 2026-05-06 21:20 | 34.22866 | -11.60075 | 37050 ft | 474 kts | 221° |
| 2026-05-06 21:20 | 34.18076 | -11.64327 | 37056 ft | 474 kts | 221° |
| 2026-05-06 21:21 | 34.13065 | -11.68770 | 37047 ft | 475 kts | 220° |
| 2026-05-06 21:21 | 34.08196 | -11.73077 | 37054 ft | 475 kts | 220° |
| 2026-05-06 21:22 | 34.03162 | -11.77525 | 37060 ft | 475 kts | 220° |
| 2026-05-06 21:22 | 33.98100 | -11.81991 | 37059 ft | 475 kts | 220° |
| 2026-05-06 21:23 | 33.93136 | -11.86365 | 37057 ft | 475 kts | 220° |
| 2026-05-06 21:23 | 33.88620 | -11.90339 | 37043 ft | 475 kts | 220° |
| 2026-05-06 21:24 | 33.83993 | -11.94405 | 37052 ft | 474 kts | 220° |
| 2026-05-06 21:24 | 33.79327 | -11.98498 | 37058 ft | 474 kts | 220° |
| 2026-05-06 21:25 | 33.74583 | -12.02654 | 37060 ft | 474 kts | 220° |
| 2026-05-06 21:25 | 33.69958 | -12.06696 | 37055 ft | 476 kts | 221° |
| 2026-05-06 21:26 | 33.65367 | -12.10708 | 37069 ft | 478 kts | 221° |
| 2026-05-06 21:26 | 33.60595 | -12.14875 | 37046 ft | 478 kts | 220° |
| 2026-05-06 21:27 | 33.55920 | -12.18951 | 37062 ft | 478 kts | 220° |
| 2026-05-06 21:27 | 33.51124 | -12.23123 | 37067 ft | 478 kts | 220° |
| 2026-05-06 21:28 | 33.46236 | -12.27370 | 37072 ft | 478 kts | 220° |
| 2026-05-06 21:28 | 33.41413 | -12.31554 | 37071 ft | 478 kts | 220° |
| 2026-05-06 21:29 | 33.36472 | -12.35836 | 37068 ft | 478 kts | 220° |
| 2026-05-06 21:29 | 33.31501 | -12.40138 | 37050 ft | 478 kts | 220° |
| 2026-05-06 21:30 | 33.26414 | -12.44528 | 37065 ft | 480 kts | 220° |
| 2026-05-06 21:30 | 33.21443 | -12.48817 | 37075 ft | 481 kts | 220° |
| 2026-05-06 21:31 | 33.16601 | -12.52989 | 37073 ft | 481 kts | 220° |
| 2026-05-06 21:31 | 33.11833 | -12.57090 | 37072 ft | 481 kts | 220° |
| 2026-05-06 21:32 | 33.06788 | -12.61424 | 37076 ft | 481 kts | 220° |
| 2026-05-06 21:32 | 32.99144 | -12.67982 | 37065 ft | 479 kts | 220° |
| 2026-05-06 21:33 | 32.94462 | -12.71989 | 37069 ft | 479 kts | 220° |
| 2026-05-06 21:33 | 32.89722 | -12.76039 | 37069 ft | 479 kts | 220° |
| 2026-05-06 21:34 | 32.84932 | -12.80125 | 37087 ft | 482 kts | 220° |
| 2026-05-06 21:34 | 32.80145 | -12.84193 | 37071 ft | 483 kts | 220° |
| 2026-05-06 21:35 | 32.75561 | -12.88076 | 37084 ft | 483 kts | 220° |
| 2026-05-06 21:35 | 32.70843 | -12.92067 | 37087 ft | 483 kts | 220° |
| 2026-05-06 21:36 | 32.65902 | -12.96242 | 37074 ft | 483 kts | 220° |
| 2026-05-06 21:36 | 32.60934 | -13.00434 | 37087 ft | 484 kts | 220° |
| 2026-05-06 21:37 | 32.55978 | -13.04611 | 37083 ft | 483 kts | 220° |
| 2026-05-06 21:37 | 32.50879 | -13.08902 | 37087 ft | 483 kts | 220° |
| 2026-05-06 21:38 | 32.45898 | -13.13089 | 37065 ft | 483 kts | 220° |
| 2026-05-06 21:38 | 32.40871 | -13.17305 | 37082 ft | 484 kts | 220° |
| 2026-05-06 21:39 | 32.35945 | -13.21435 | 37084 ft | 485 kts | 220° |
| 2026-05-06 21:39 | 32.30955 | -13.25612 | 37086 ft | 485 kts | 220° |
| 2026-05-06 21:40 | 32.25970 | -13.29778 | 37089 ft | 485 kts | 220° |
| 2026-05-06 21:40 | 32.20904 | -13.34006 | 37089 ft | 485 kts | 220° |
| 2026-05-06 21:41 | 32.15821 | -13.38245 | 37071 ft | 484 kts | 220° |
| 2026-05-06 21:41 | 32.10798 | -13.42428 | 37086 ft | 484 kts | 219° |
| 2026-05-06 21:42 | 32.06079 | -13.46348 | 37085 ft | 484 kts | 219° |
| 2026-05-06 21:42 | 32.01144 | -13.50442 | 37086 ft | 484 kts | 220° |
| 2026-05-06 21:43 | 31.96175 | -13.54555 | 37089 ft | 485 kts | 220° |
| 2026-05-06 21:43 | 31.91293 | -13.58601 | 37091 ft | 485 kts | 220° |
| 2026-05-06 21:44 | 31.86316 | -13.62721 | 37077 ft | 485 kts | 220° |
| 2026-05-06 21:44 | 31.81320 | -13.66850 | 37089 ft | 485 kts | 219° |
| 2026-05-06 21:45 | 31.76272 | -13.71009 | 37091 ft | 485 kts | 219° |
| 2026-05-06 21:45 | 31.71273 | -13.75124 | 37091 ft | 485 kts | 219° |
| 2026-05-06 21:46 | 31.66270 | -13.79238 | 37094 ft | 485 kts | 219° |
| 2026-05-06 21:46 | 31.61211 | -13.83392 | 37094 ft | 485 kts | 219° |
| 2026-05-06 21:47 | 31.56223 | -13.87481 | 37079 ft | 485 kts | 220° |
| 2026-05-06 21:47 | 31.51038 | -13.91727 | 37089 ft | 485 kts | 220° |
| 2026-05-06 21:48 | 31.45973 | -13.95873 | 37097 ft | 485 kts | 220° |
| 2026-05-06 21:48 | 31.41104 | -13.99851 | 37097 ft | 485 kts | 220° |
| 2026-05-06 21:49 | 31.36217 | -14.03838 | 37092 ft | 485 kts | 220° |
| 2026-05-06 21:49 | 31.31298 | -14.07845 | 37095 ft | 485 kts | 220° |
| 2026-05-06 21:50 | 31.26518 | -14.11757 | 37084 ft | 484 kts | 219° |
| 2026-05-06 21:50 | 31.21590 | -14.15795 | 37091 ft | 484 kts | 219° |
| 2026-05-06 21:51 | 31.16571 | -14.19899 | 37093 ft | 484 kts | 219° |
| 2026-05-06 21:51 | 31.11404 | -14.24114 | 37097 ft | 482 kts | 220° |
| 2026-05-06 21:52 | 31.06238 | -14.28327 | 37101 ft | 482 kts | 220° |
| 2026-05-06 21:52 | 31.01034 | -14.32568 | 37091 ft | 481 kts | 220° |
| 2026-05-06 21:53 | 30.96191 | -14.36512 | 37089 ft | 481 kts | 219° |
| 2026-05-06 21:53 | 30.91197 | -14.40565 | 37092 ft | 480 kts | 219° |
| 2026-05-06 21:54 | 30.85845 | -14.44894 | 37097 ft | 480 kts | 219° |
| 2026-05-06 21:54 | 30.80510 | -14.49193 | 37094 ft | 480 kts | 219° |
| 2026-05-06 21:55 | 30.75097 | -14.53550 | 37096 ft | 480 kts | 219° |
| 2026-05-06 21:55 | 30.69765 | -14.57837 | 37075 ft | 480 kts | 219° |
| 2026-05-06 21:56 | 30.64427 | -14.62125 | 37090 ft | 478 kts | 219° |
| 2026-05-06 21:56 | 30.59127 | -14.66375 | 37098 ft | 478 kts | 219° |
| 2026-05-06 21:57 | 30.53922 | -14.70543 | 37099 ft | 478 kts | 219° |
| 2026-05-06 21:57 | 30.48579 | -14.74816 | 37097 ft | 478 kts | 219° |
| 2026-05-06 21:58 | 30.43234 | -14.79085 | 37102 ft | 478 kts | 219° |
| 2026-05-06 21:58 | 30.37909 | -14.83333 | 37076 ft | 477 kts | 219° |
| 2026-05-06 21:59 | 30.32876 | -14.87344 | 37106 ft | 473 kts | 218° |
| 2026-05-06 21:59 | 30.27821 | -14.91364 | 37093 ft | 473 kts | 218° |
| 2026-05-06 22:00 | 30.22850 | -14.95311 | 37094 ft | 474 kts | 219° |
| 2026-05-06 22:00 | 30.17953 | -14.99197 | 37100 ft | 478 kts | 219° |
| 2026-05-06 22:01 | 30.12949 | -15.03166 | 37099 ft | 479 kts | 219° |
| 2026-05-06 22:01 | 30.10342 | -15.05231 | 36965 ft | 479 kts | 219° |
| 2026-05-06 22:01 | 30.07660 | -15.07350 | 36693 ft | 478 kts | 219° |
| 2026-05-06 22:02 | 30.04988 | -15.09462 | 36387 ft | 473 kts | 219° |
| 2026-05-06 22:02 | 30.02446 | -15.11466 | 36035 ft | 471 kts | 219° |
| 2026-05-06 22:02 | 29.99885 | -15.13485 | 35530 ft | 471 kts | 219° |
| 2026-05-06 22:02 | 29.97310 | -15.15514 | 34953 ft | 473 kts | 220° |
| 2026-05-06 22:03 | 29.94712 | -15.17561 | 34351 ft | 475 kts | 220° |
| 2026-05-06 22:03 | 29.92092 | -15.19626 | 33668 ft | 478 kts | 221° |
| 2026-05-06 22:03 | 29.89660 | -15.21548 | 33080 ft | 480 kts | 220° |
| 2026-05-06 22:03 | 29.87258 | -15.23448 | 32519 ft | 481 kts | 220° |
| 2026-05-06 22:04 | 29.84806 | -15.25383 | 31967 ft | 482 kts | 220° |
| 2026-05-06 22:04 | 29.82386 | -15.27291 | 31403 ft | 483 kts | 220° |
| 2026-05-06 22:04 | 29.79824 | -15.29307 | 30829 ft | 484 kts | 219° |
| 2026-05-06 22:04 | 29.77270 | -15.31314 | 30245 ft | 486 kts | 219° |
| 2026-05-06 22:05 | 29.74740 | -15.33299 | 29596 ft | 487 kts | 219° |
| 2026-05-06 22:05 | 29.72158 | -15.35323 | 28928 ft | 488 kts | 219° |
| 2026-05-06 22:05 | 29.69597 | -15.37329 | 28295 ft | 488 kts | 218° |
| 2026-05-06 22:05 | 29.67044 | -15.39327 | 27674 ft | 488 kts | 218° |
| 2026-05-06 22:06 | 29.64381 | -15.41410 | 27136 ft | 488 kts | 218° |
| 2026-05-06 22:06 | 29.61733 | -15.43480 | 26764 ft | 487 kts | 218° |
| 2026-05-06 22:06 | 29.59093 | -15.45542 | 26283 ft | 485 kts | 218° |
| 2026-05-06 22:06 | 29.56572 | -15.47510 | 25817 ft | 482 kts | 218° |
| 2026-05-06 22:07 | 29.54032 | -15.49493 | 25350 ft | 479 kts | 218° |
| 2026-05-06 22:07 | 29.51513 | -15.51459 | 24902 ft | 476 kts | 218° |
| 2026-05-06 22:07 | 29.49090 | -15.53348 | 24462 ft | 473 kts | 218° |
| 2026-05-06 22:07 | 29.46632 | -15.55265 | 24009 ft | 471 kts | 217° |
| 2026-05-06 22:08 | 29.44176 | -15.57180 | 23555 ft | 469 kts | 217° |
| 2026-05-06 22:08 | 29.41815 | -15.59018 | 23061 ft | 466 kts | 217° |
| 2026-05-06 22:08 | 29.39373 | -15.60915 | 22618 ft | 462 kts | 217° |
| 2026-05-06 22:08 | 29.36868 | -15.62861 | 22201 ft | 457 kts | 217° |
| 2026-05-06 22:09 | 29.34451 | -15.64738 | 21776 ft | 451 kts | 217° |
| 2026-05-06 22:09 | 29.31990 | -15.66647 | 21404 ft | 448 kts | 217° |
| 2026-05-06 22:09 | 29.29534 | -15.68554 | 21072 ft | 450 kts | 217° |
| 2026-05-06 22:09 | 29.27107 | -15.70437 | 20718 ft | 447 kts | 217° |
| 2026-05-06 22:10 | 29.24698 | -15.72304 | 20351 ft | 445 kts | 217° |
| 2026-05-06 22:10 | 29.22265 | -15.74188 | 19941 ft | 441 kts | 217° |
| 2026-05-06 22:10 | 29.19972 | -15.75963 | 19561 ft | 438 kts | 217° |
| 2026-05-06 22:10 | 29.17615 | -15.77787 | 19173 ft | 435 kts | 217° |
| 2026-05-06 22:11 | 29.15365 | -15.79527 | 18813 ft | 432 kts | 217° |
| 2026-05-06 22:11 | 29.13321 | -15.81108 | 18485 ft | 429 kts | 217° |
| 2026-05-06 22:11 | 29.11202 | -15.82745 | 18107 ft | 426 kts | 217° |
| 2026-05-06 22:11 | 29.09161 | -15.84321 | 17715 ft | 422 kts | 217° |
| 2026-05-06 22:12 | 29.07036 | -15.85962 | 17332 ft | 419 kts | 217° |
| 2026-05-06 22:12 | 29.04812 | -15.87678 | 16933 ft | 416 kts | 217° |
| 2026-05-06 22:12 | 29.02627 | -15.89364 | 16546 ft | 412 kts | 217° |
| 2026-05-06 22:12 | 29.00491 | -15.91010 | 16160 ft | 410 kts | 217° |
| 2026-05-06 22:13 | 28.98305 | -15.92693 | 15755 ft | 407 kts | 217° |
| 2026-05-06 22:13 | 28.96154 | -15.94353 | 15370 ft | 404 kts | 217° |
| 2026-05-06 22:13 | 28.94019 | -15.95998 | 14983 ft | 401 kts | 217° |
| 2026-05-06 22:13 | 28.91927 | -15.97609 | 14597 ft | 398 kts | 217° |
| 2026-05-06 22:14 | 28.89901 | -15.99168 | 14234 ft | 395 kts | 217° |
| 2026-05-06 22:14 | 28.87917 | -16.00694 | 13846 ft | 393 kts | 217° |
| 2026-05-06 22:14 | 28.85887 | -16.02253 | 13408 ft | 390 kts | 217° |
| 2026-05-06 22:14 | 28.83955 | -16.03736 | 13026 ft | 387 kts | 216° |
| 2026-05-06 22:15 | 28.82084 | -16.05172 | 12677 ft | 383 kts | 216° |
| 2026-05-06 22:15 | 28.80121 | -16.06676 | 12312 ft | 380 kts | 216° |
| 2026-05-06 22:15 | 28.78171 | -16.08170 | 11944 ft | 376 kts | 216° |
| 2026-05-06 22:15 | 28.76230 | -16.09655 | 11580 ft | 373 kts | 216° |
| 2026-05-06 22:16 | 28.74326 | -16.11113 | 11211 ft | 370 kts | 216° |
| 2026-05-06 22:16 | 28.72432 | -16.12565 | 10985 ft | 368 kts | 216° |
| 2026-05-06 22:16 | 28.70591 | -16.13970 | 10974 ft | 353 kts | 216° |
| 2026-05-06 22:16 | 28.68848 | -16.15298 | 10960 ft | 338 kts | 216° |
| 2026-05-06 22:17 | 28.67209 | -16.16549 | 10736 ft | 332 kts | 216° |
| 2026-05-06 22:17 | 28.65540 | -16.17826 | 10509 ft | 326 kts | 216° |
| 2026-05-06 22:17 | 28.63938 | -16.19048 | 10362 ft | 317 kts | 216° |
| 2026-05-06 22:17 | 28.62422 | -16.20202 | 10301 ft | 306 kts | 217° |
| 2026-05-06 22:18 | 28.60944 | -16.21331 | 10240 ft | 295 kts | 217° |
| 2026-05-06 22:18 | 28.59435 | -16.22484 | 10166 ft | 286 kts | 217° |
| 2026-05-06 22:18 | 28.58025 | -16.23562 | 10092 ft | 280 kts | 217° |
| 2026-05-06 22:18 | 28.56384 | -16.24817 | 9753 ft | 281 kts | 217° |
| 2026-05-06 22:19 | 28.55064 | -16.26149 | 9414 ft | 274 kts | 238° |
| 2026-05-06 22:19 | 28.54389 | -16.27906 | 9133 ft | 266 kts | 262° |
| 2026-05-06 22:19 | 28.54425 | -16.29899 | 8825 ft | 262 kts | 285° |
| 2026-05-06 22:19 | 28.54974 | -16.31937 | 8536 ft | 259 kts | 289° |
| 2026-05-06 22:20 | 28.55529 | -16.33871 | 8249 ft | 258 kts | 289° |
| 2026-05-06 22:20 | 28.56081 | -16.35831 | 7960 ft | 257 kts | 289° |
| 2026-05-06 22:20 | 28.56622 | -16.37718 | 7682 ft | 257 kts | 289° |
| 2026-05-06 22:20 | 28.57187 | -16.39642 | 7387 ft | 257 kts | 290° |
| 2026-05-06 22:21 | 28.57748 | -16.41566 | 7104 ft | 256 kts | 290° |
| 2026-05-06 22:21 | 28.58311 | -16.43498 | 6808 ft | 256 kts | 290° |
| 2026-05-06 22:21 | 28.58855 | -16.45377 | 6535 ft | 256 kts | 290° |
| 2026-05-06 22:21 | 28.59397 | -16.47235 | 6244 ft | 256 kts | 290° |
| 2026-05-06 22:22 | 28.59945 | -16.49136 | 5964 ft | 255 kts | 291° |
| 2026-05-06 22:22 | 28.60479 | -16.51006 | 5682 ft | 255 kts | 291° |
| 2026-05-06 22:22 | 28.61015 | -16.52858 | 5408 ft | 254 kts | 290° |
| 2026-05-06 22:22 | 28.61544 | -16.54690 | 5187 ft | 251 kts | 291° |
| 2026-05-06 22:23 | 28.62005 | -16.56524 | 5144 ft | 240 kts | 277° |
| 2026-05-06 22:23 | 28.61696 | -16.58293 | 5081 ft | 238 kts | 239° |
| 2026-05-06 22:23 | 28.60506 | -16.59556 | 5067 ft | 243 kts | 203° |
| 2026-05-06 22:23 | 28.58904 | -16.59843 | 4926 ft | 243 kts | 168° |
| 2026-05-06 22:24 | 28.57379 | -16.59192 | 4807 ft | 238 kts | 150° |
| 2026-05-06 22:24 | 28.56207 | -16.58016 | 4606 ft | 233 kts | 121° |
| 2026-05-06 22:24 | 28.55488 | -16.56398 | 4292 ft | 232 kts | 107° |
| 2026-05-06 22:24 | 28.54984 | -16.54707 | 4014 ft | 232 kts | 105° |
| 2026-05-06 22:25 | 28.54476 | -16.52986 | 3990 ft | 224 kts | 106° |
| 2026-05-06 22:25 | 28.53961 | -16.51357 | 3989 ft | 224 kts | 108° |
| 2026-05-06 22:25 | 28.53418 | -16.49708 | 3995 ft | 224 kts | 108° |
| 2026-05-06 22:25 | 28.52861 | -16.48043 | 3997 ft | 223 kts | 108° |
| 2026-05-06 22:26 | 28.52313 | -16.46398 | 3974 ft | 222 kts | 107° |
| 2026-05-06 22:26 | 28.51783 | -16.44795 | 3808 ft | 216 kts | 108° |
| 2026-05-06 22:26 | 28.51276 | -16.43254 | 3544 ft | 210 kts | 108° |
| 2026-05-06 22:26 | 28.50770 | -16.41725 | 3230 ft | 198 kts | 109° |
| 2026-05-06 22:27 | 28.50291 | -16.40277 | 2948 ft | 185 kts | 109° |
| 2026-05-06 22:27 | 28.49855 | -16.38946 | 2715 ft | 173 kts | 108° |
| 2026-05-06 22:27 | 28.49456 | -16.37706 | 2468 ft | 161 kts | 111° |
| 2026-05-06 22:27 | 28.49073 | -16.36598 | 2261 ft | 155 kts | 109° |
| 2026-05-06 22:28 | 28.48714 | -16.35491 | 2091 ft | 151 kts | 110° |
| 2026-05-06 22:28 | 28.48422 | -16.34626 | 2077 ft | 81 kts | 110° |
| 2026-05-06 22:28 | 28.48302 | -16.34262 | 2067 ft | 32 kts | 110° |
| 2026-05-06 22:28 | 28.48221 | -16.34015 | 2059 ft | 34 kts | 110° |
| 2026-05-06 22:29 | 28.48157 | -16.33776 | 2054 ft | 29 kts | 97° |
| 2026-05-06 22:29 | 28.48138 | -16.33596 | 2049 ft | 14 kts | 81° |
| 2026-05-06 22:29 | 28.48201 | -16.33615 | 2049 ft | 14 kts | 304° |
| 2026-05-06 22:29 | 28.48239 | -16.33728 | 2049 ft | 15 kts | 292° |
| 2026-05-06 22:30 | 28.48284 | -16.33850 | 2048 ft | 17 kts | 292° |
| 2026-05-06 22:30 | 28.48333 | -16.33991 | 2050 ft | 12 kts | 284° |
| 2026-05-06 22:30 | 28.48362 | -16.34117 | 2059 ft | 11 kts | 288° |
| 2026-05-06 22:30 | 28.48393 | -16.34198 | 2062 ft | 11 kts | 293° |
| 2026-05-06 22:31 | 28.48427 | -16.34290 | 2064 ft | 15 kts | 292° |
| 2026-05-06 22:31 | 28.48464 | -16.34400 | 2067 ft | 15 kts | 290° |
| 2026-05-06 22:31 | 28.48489 | -16.34476 | 2071 ft | 3 kts | 291° |
| 2026-05-06 22:31 | 28.48499 | -16.34499 | 2072 ft | 3 kts | 303° |
| 2026-05-06 22:32 | 28.48513 | -16.34508 | 2072 ft | 2 kts | 354° |
| 2026-05-06 22:32 | 28.48537 | -16.34508 | 2072 ft | 5 kts | 6° |
| 2026-05-06 22:32 | 28.48567 | -16.34498 | 2072 ft | 4 kts | 19° |
| 2026-05-06 22:32 | 28.48582 | -16.34491 | 2072 ft | 2 kts | 20° |
| 2026-05-06 22:33 | 28.48591 | -16.34488 | 2072 ft | 0 kts | 20° |
| 2026-05-06 22:33 | 28.48595 | -16.34486 | 2072 ft | 0 kts | 20° |